createdAt,value
2018-12-21T00:02:18.300Z,6.89
2018-12-21T00:05:21.505Z,6.75
2018-12-21T00:08:24.704Z,6.81
2018-12-21T00:11:28.465Z,6.88
2018-12-21T00:14:31.694Z,6.73
2018-12-21T00:17:35.440Z,6.69
2018-12-21T00:20:38.672Z,6.77
2018-12-21T00:23:41.852Z,6.72
2018-12-21T00:26:45.026Z,6.68
2018-12-21T00:29:48.238Z,6.66
2018-12-21T00:32:57.473Z,6.65
2018-12-21T00:36:06.036Z,6.61
2018-12-21T00:39:14.819Z,6.66
2018-12-21T00:42:30.529Z,6.68
2018-12-21T00:45:36.733Z,6.57
2018-12-21T00:48:39.884Z,6.53
2018-12-21T00:51:43.078Z,6.66
2018-12-21T00:54:46.271Z,6.59
2018-12-21T00:57:49.479Z,6.71
2018-12-21T01:00:52.648Z,6.51
2018-12-21T01:03:56.064Z,6.52
2018-12-21T01:06:59.291Z,6.74
2018-12-21T01:10:02.480Z,6.61
2018-12-21T01:13:05.680Z,6.57
2018-12-21T01:16:09.463Z,6.63
2018-12-21T01:19:13.299Z,6.71
2018-12-21T01:22:16.541Z,6.58
2018-12-21T01:25:19.832Z,6.63
2018-12-21T01:28:23.562Z,6.48
2018-12-21T01:31:26.817Z,6.59
2018-12-21T01:34:30.072Z,6.47
2018-12-21T01:37:33.233Z,6.49
2018-12-21T01:40:36.482Z,6.59
2018-12-21T01:43:39.671Z,6.52
2018-12-21T01:46:43.568Z,6.50
2018-12-21T01:49:46.748Z,6.42
2018-12-21T01:52:50.456Z,6.42
2018-12-21T01:55:53.756Z,6.43
2018-12-21T01:58:56.942Z,6.45
2018-12-21T02:02:00.138Z,6.49
2018-12-21T02:05:03.512Z,6.49
2018-12-21T02:08:06.715Z,6.46
2018-12-21T02:11:11.333Z,6.55
2018-12-21T02:14:14.555Z,6.68
2018-12-21T02:17:17.747Z,6.72
2018-12-21T02:20:21.065Z,6.70
2018-12-21T02:23:24.359Z,6.68
2018-12-21T02:26:27.660Z,6.71
2018-12-21T02:29:30.832Z,6.69
2018-12-21T02:32:34.176Z,6.72
2018-12-21T02:35:37.395Z,6.95
2018-12-21T02:38:40.680Z,6.93
2018-12-21T02:41:43.982Z,6.87
2018-12-21T02:44:47.237Z,6.84
2018-12-21T02:47:50.618Z,6.80
2018-12-21T02:50:53.912Z,6.91
2018-12-21T02:53:57.164Z,6.90
2018-12-21T02:57:00.299Z,6.83
2018-12-21T03:00:04.054Z,6.95
2018-12-21T03:03:07.364Z,6.98
2018-12-21T03:06:10.525Z,7.03
2018-12-21T03:09:13.806Z,7.06
2018-12-21T03:12:16.980Z,7.05
2018-12-21T03:15:20.309Z,6.90
2018-12-21T03:18:23.615Z,6.98
2018-12-21T03:21:26.784Z,6.98
2018-12-21T03:24:30.019Z,6.92
2018-12-21T03:27:33.196Z,6.89
2018-12-21T03:30:36.470Z,7.05
2018-12-21T03:33:39.670Z,7.06
2018-12-21T03:36:42.863Z,7.07
2018-12-21T03:39:46.256Z,7.02
2018-12-21T03:42:49.499Z,7.08
2018-12-21T03:45:52.655Z,7.03
2018-12-21T03:48:55.898Z,7.03
2018-12-21T03:51:59.254Z,7.02
2018-12-21T03:55:02.464Z,7.09
2018-12-21T03:58:05.697Z,7.02
2018-12-21T04:01:09.028Z,7.02
2018-12-21T04:04:12.250Z,6.97
2018-12-21T04:07:15.545Z,7.05
2018-12-21T04:10:18.721Z,7.00
2018-12-21T04:13:21.945Z,7.03
2018-12-21T04:16:25.197Z,6.94
2018-12-21T04:19:28.552Z,7.10
2018-12-21T04:22:34.272Z,6.96
2018-12-21T04:25:37.886Z,6.89
2018-12-21T04:28:42.643Z,6.97
2018-12-21T04:31:45.927Z,7.06
2018-12-21T04:34:50.426Z,7.00
2018-12-21T04:37:53.651Z,6.99
2018-12-21T04:40:56.915Z,6.78
2018-12-21T04:44:00.823Z,6.76
2018-12-21T04:47:04.140Z,6.70
2018-12-21T04:50:08.854Z,6.77
2018-12-21T04:53:12.074Z,6.79
2018-12-21T04:56:16.279Z,6.82
2018-12-21T04:59:19.488Z,6.67
2018-12-21T05:02:22.667Z,6.69
2018-12-21T05:05:26.003Z,6.71
2018-12-21T05:08:29.169Z,6.69
2018-12-21T05:11:32.361Z,6.86
2018-12-21T05:14:35.557Z,6.82
2018-12-21T05:17:38.765Z,6.71
2018-12-21T05:20:42.075Z,6.71
2018-12-21T05:23:45.952Z,6.84
2018-12-21T05:26:49.144Z,6.70
2018-12-21T05:29:53.596Z,6.73
2018-12-21T05:32:56.767Z,6.61
2018-12-21T05:36:00.094Z,6.65
2018-12-21T05:39:04.256Z,6.61
2018-12-21T05:42:07.623Z,6.66
2018-12-21T05:45:11.359Z,6.61
2018-12-21T05:48:14.687Z,6.65
2018-12-21T05:51:17.844Z,6.62
2018-12-21T05:54:21.321Z,6.72
2018-12-21T05:57:24.493Z,6.72
2018-12-21T06:00:27.906Z,6.66
2018-12-21T06:03:31.089Z,6.66
2018-12-21T06:06:34.283Z,6.60
2018-12-21T06:09:37.468Z,6.64
2018-12-21T06:12:40.770Z,6.71
2018-12-21T06:15:45.710Z,6.58
2018-12-21T06:18:49.076Z,6.52
2018-12-21T06:21:52.478Z,6.57
2018-12-21T06:24:55.630Z,6.56
2018-12-21T06:27:58.893Z,6.71
2018-12-21T06:31:04.742Z,6.71
2018-12-21T06:34:07.957Z,6.68
2018-12-21T06:37:11.130Z,6.58
2018-12-21T06:40:14.320Z,6.61
2018-12-21T06:43:17.512Z,6.63
2018-12-21T06:46:20.812Z,6.60
2018-12-21T06:49:24.092Z,6.56
2018-12-21T06:52:27.274Z,6.61
2018-12-21T06:55:30.629Z,6.72
2018-12-21T06:58:33.818Z,6.62
2018-12-21T07:01:37.279Z,6.64
2018-12-21T07:04:40.595Z,6.73
2018-12-21T07:07:43.794Z,6.71
2018-12-21T07:10:47.219Z,6.97
2018-12-21T07:13:51.712Z,6.80
2018-12-21T07:16:55.013Z,6.94
2018-12-21T07:19:58.207Z,6.79
2018-12-21T07:23:01.406Z,6.85
2018-12-21T07:26:04.695Z,6.79
2018-12-21T07:29:07.912Z,6.82
2018-12-21T07:32:11.097Z,6.87
2018-12-21T07:35:16.302Z,6.84
2018-12-21T07:38:19.611Z,6.84
2018-12-21T07:41:22.993Z,6.82
2018-12-21T07:44:26.191Z,7.00
2018-12-21T07:47:29.539Z,6.87
2018-12-21T07:50:32.800Z,6.92
2018-12-21T07:53:36.287Z,6.90
2018-12-21T07:56:39.712Z,6.89
2018-12-21T07:59:43.026Z,6.91
2018-12-21T08:02:46.307Z,6.98
2018-12-21T08:05:49.509Z,6.94
2018-12-21T08:08:52.799Z,6.94
2018-12-21T08:11:56.056Z,6.88
2018-12-21T08:14:59.256Z,6.94
2018-12-21T08:18:02.442Z,6.89
2018-12-21T08:21:05.777Z,7.03
2018-12-21T08:24:09.137Z,6.97
2018-12-21T08:27:12.403Z,7.06
2018-12-21T08:30:15.698Z,7.04
2018-12-21T08:33:18.961Z,6.91
2018-12-21T08:36:22.479Z,6.93
2018-12-21T08:39:25.814Z,7.03
2018-12-21T08:42:29.232Z,7.06
2018-12-21T08:45:32.473Z,7.06
2018-12-21T08:48:35.641Z,7.02
2018-12-21T08:51:38.850Z,7.05
2018-12-21T08:54:42.146Z,7.01
2018-12-21T08:57:45.349Z,7.25
2018-12-21T09:00:48.534Z,7.03
2018-12-21T09:03:51.781Z,7.08
2018-12-21T09:06:55.183Z,7.09
2018-12-21T09:09:58.396Z,7.03
2018-12-21T09:13:01.631Z,7.12
2018-12-21T09:16:04.923Z,7.12
2018-12-21T09:19:08.128Z,6.98
2018-12-21T09:22:11.311Z,7.01
2018-12-21T09:25:14.705Z,7.18
2018-12-21T09:28:18.214Z,6.98
2018-12-21T09:31:21.557Z,7.16
2018-12-21T09:34:24.725Z,7.04
2018-12-21T09:37:28.006Z,7.00
2018-12-21T09:40:31.350Z,7.04
2018-12-21T09:43:34.991Z,7.04
2018-12-21T09:46:38.209Z,7.07
2018-12-21T09:49:41.382Z,7.18
2018-12-21T09:52:44.599Z,7.12
2018-12-21T09:55:47.779Z,7.10
2018-12-21T09:58:50.938Z,7.10
2018-12-21T10:01:54.192Z,7.05
2018-12-21T10:04:57.363Z,6.99
2018-12-21T10:08:00.564Z,6.99
2018-12-21T10:11:04.477Z,7.19
2018-12-21T10:14:07.694Z,7.02
2018-12-21T10:17:10.862Z,7.08
2018-12-21T10:20:14.093Z,6.99
2018-12-21T10:23:17.560Z,6.97
2018-12-21T10:26:22.568Z,6.96
2018-12-21T10:29:25.884Z,6.97
2018-12-21T10:32:29.098Z,7.03
2018-12-21T10:35:32.276Z,7.08
2018-12-21T10:38:36.796Z,7.14
2018-12-21T10:41:40.008Z,7.27
2018-12-21T10:44:43.187Z,7.18
2018-12-21T10:47:46.351Z,7.12
2018-12-21T10:50:50.992Z,7.27
2018-12-21T10:53:54.197Z,7.16
2018-12-21T10:56:57.394Z,7.24
2018-12-21T11:00:00.721Z,7.23
2018-12-21T11:03:04.020Z,7.09
2018-12-21T11:06:07.313Z,7.12
2018-12-21T11:09:10.503Z,7.14
2018-12-21T11:12:13.779Z,7.16
2018-12-21T11:15:16.971Z,7.21
2018-12-21T11:18:20.183Z,7.11
2018-12-21T11:21:23.474Z,7.27
2018-12-21T11:24:35.234Z,7.14
2018-12-21T11:27:32.112Z,7.14
2018-12-21T11:30:35.327Z,7.26
2018-12-21T11:33:38.522Z,7.21
2018-12-21T11:36:41.825Z,7.26
2018-12-21T11:39:44.998Z,7.21
2018-12-21T11:42:48.277Z,7.20
2018-12-21T11:45:51.591Z,7.21
2018-12-21T11:48:54.914Z,7.14
2018-12-21T11:51:58.357Z,7.16
2018-12-21T11:55:01.602Z,7.14
2018-12-21T11:58:05.730Z,7.08
2018-12-21T12:01:09.094Z,7.15
2018-12-21T12:04:12.433Z,7.16
2018-12-21T12:07:15.636Z,7.20
2018-12-21T12:10:18.878Z,7.14
2018-12-21T12:13:22.189Z,7.05
2018-12-21T12:16:25.382Z,7.05
2018-12-21T12:19:28.598Z,6.98
2018-12-21T12:22:31.793Z,7.21
2018-12-21T12:25:35.005Z,7.16
2018-12-21T12:28:38.267Z,7.09
2018-12-21T12:31:42.911Z,7.15
2018-12-21T12:34:46.441Z,7.02
2018-12-21T12:37:49.642Z,7.03
2018-12-21T12:40:53.119Z,6.99
2018-12-21T12:43:58.558Z,7.12
2018-12-21T12:47:01.740Z,7.27
2018-12-21T12:50:06.878Z,7.21
2018-12-21T12:53:10.077Z,7.18
2018-12-21T12:56:13.297Z,7.11
2018-12-21T12:59:16.535Z,7.14
2018-12-21T13:02:19.859Z,7.06
2018-12-21T13:05:23.132Z,7.05
2018-12-21T13:08:26.566Z,7.21
2018-12-21T13:11:29.845Z,7.22
2018-12-21T13:14:33.227Z,7.11
2018-12-21T13:17:37.720Z,7.18
2018-12-21T13:20:40.933Z,7.17
2018-12-21T13:23:44.100Z,7.06
2018-12-21T13:26:48.446Z,7.09
2018-12-21T13:29:51.735Z,6.93
2018-12-21T13:32:55.634Z,7.11
2018-12-21T13:35:58.809Z,6.94
2018-12-21T13:39:02.121Z,7.12
2018-12-21T13:42:05.384Z,6.99
2018-12-21T13:45:10.487Z,7.01
2018-12-21T13:48:13.713Z,7.08
2018-12-21T13:51:16.934Z,7.05
2018-12-21T13:54:20.362Z,7.14
2018-12-21T13:57:23.685Z,7.02
2018-12-21T14:00:27.012Z,7.06
2018-12-21T14:03:30.304Z,7.10
2018-12-21T14:06:33.607Z,6.99
2018-12-21T14:09:36.850Z,6.94
2018-12-21T14:12:40.223Z,7.11
2018-12-21T14:15:43.651Z,7.04
2018-12-21T14:18:47.036Z,6.90
2018-12-21T14:21:50.352Z,6.98
2018-12-21T14:24:53.537Z,7.02
2018-12-21T14:27:56.760Z,7.04
2018-12-21T14:31:00.097Z,7.09
2018-12-21T14:34:04.578Z,7.07
2018-12-21T14:37:07.955Z,7.04
2018-12-21T14:40:11.147Z,6.98
2018-12-21T14:43:14.813Z,7.04
2018-12-21T14:46:18.108Z,6.79
2018-12-21T14:49:21.303Z,6.89
2018-12-21T14:52:24.605Z,6.99
2018-12-21T14:55:28.149Z,7.10
2018-12-21T14:58:31.341Z,6.97
2018-12-21T15:01:34.874Z,6.95
2018-12-21T15:04:39.773Z,6.97
2018-12-21T15:07:43.069Z,6.91
2018-12-21T15:10:46.411Z,6.90
2018-12-21T15:13:49.711Z,6.79
2018-12-21T15:16:52.941Z,6.85
2018-12-21T15:19:56.138Z,7.02
2018-12-21T15:22:59.416Z,6.77
2018-12-21T15:26:02.709Z,6.87
2018-12-21T15:29:06.059Z,6.93
2018-12-21T15:32:09.436Z,6.74
2018-12-21T15:35:12.781Z,6.94
2018-12-21T15:38:17.522Z,7.00
2018-12-21T15:41:20.760Z,6.86
2018-12-21T15:44:25.357Z,7.03
2018-12-21T15:47:28.522Z,6.93
2018-12-21T15:50:31.707Z,6.76
2018-12-21T15:53:34.922Z,6.70
2018-12-21T15:56:38.124Z,6.92
2018-12-21T15:59:41.582Z,6.93
2018-12-21T16:02:48.166Z,6.74
2018-12-21T16:05:51.517Z,6.76
2018-12-21T16:08:54.866Z,6.77
2018-12-21T16:11:59.950Z,6.86
2018-12-21T16:15:03.159Z,6.69
2018-12-21T16:18:06.495Z,6.81
2018-12-21T16:21:11.468Z,6.69
2018-12-21T16:24:14.704Z,6.93
2018-12-21T16:27:18.172Z,6.94
2018-12-21T16:30:21.396Z,6.67
2018-12-21T16:33:24.669Z,6.70
2018-12-21T16:36:27.963Z,7.01
2018-12-21T16:39:32.182Z,6.79
2018-12-21T16:42:35.506Z,6.85
2018-12-21T16:45:38.793Z,6.90
2018-12-21T16:48:42.027Z,6.83
2018-12-21T16:51:45.273Z,6.77
2018-12-21T16:54:48.468Z,6.85
2018-12-21T16:57:51.668Z,6.81
2018-12-21T17:00:54.990Z,6.78
2018-12-21T17:03:58.268Z,6.78
2018-12-21T17:07:01.595Z,6.75
2018-12-21T17:10:08.589Z,6.65
2018-12-21T17:13:11.824Z,6.66
2018-12-21T17:16:15.041Z,6.73
2018-12-21T17:19:20.450Z,6.75
2018-12-21T17:22:23.767Z,6.67
2018-12-21T17:25:27.479Z,6.73
2018-12-21T17:28:30.667Z,6.55
2018-12-21T17:31:33.865Z,6.63
2018-12-21T17:34:37.159Z,6.59
2018-12-21T17:37:40.639Z,6.71
2018-12-21T17:40:43.846Z,6.84
2018-12-21T17:43:47.248Z,6.67
2018-12-21T17:46:51.736Z,6.64
2018-12-21T17:49:54.954Z,6.69
2018-12-21T17:52:58.152Z,6.70
2018-12-21T17:56:01.441Z,6.57
2018-12-21T17:59:04.777Z,6.81
2018-12-21T18:02:07.982Z,6.67
2018-12-21T18:05:11.348Z,6.74
2018-12-21T18:08:14.626Z,6.76
2018-12-21T18:11:19.071Z,6.63
2018-12-21T18:14:22.458Z,6.59
2018-12-21T18:17:25.821Z,6.62
2018-12-21T18:20:29.010Z,6.62
2018-12-21T18:23:33.288Z,6.66
2018-12-21T18:26:38.694Z,6.50
2018-12-21T18:29:43.409Z,6.55
2018-12-21T18:32:46.800Z,6.68
2018-12-21T18:35:50.169Z,6.73
2018-12-21T18:38:53.436Z,6.71
2018-12-21T18:41:57.940Z,6.57
2018-12-21T18:45:01.197Z,6.72
2018-12-21T18:48:04.614Z,6.70
2018-12-21T18:51:07.914Z,6.65
2018-12-21T18:54:11.193Z,6.61
2018-12-21T18:57:17.789Z,6.53
2018-12-21T19:00:21.036Z,6.57
2018-12-21T19:03:24.343Z,6.47
2018-12-21T19:06:27.511Z,6.52
2018-12-21T19:09:30.731Z,6.39
2018-12-21T19:12:34.030Z,6.53
2018-12-21T19:15:38.075Z,6.44
2018-12-21T19:18:41.349Z,6.56
2018-12-21T19:21:44.548Z,6.50
2018-12-21T19:24:47.848Z,6.33
2018-12-21T19:27:51.209Z,6.51
2018-12-21T19:30:54.483Z,6.40
2018-12-21T19:33:57.919Z,6.58
2018-12-21T19:37:01.847Z,6.39
2018-12-21T19:40:09.417Z,6.36
2018-12-21T19:43:12.644Z,6.64
2018-12-21T19:46:15.959Z,6.56
2018-12-21T19:49:20.285Z,6.42
2018-12-21T19:52:23.513Z,6.48
2018-12-21T19:55:47.086Z,6.58
2018-12-21T19:58:50.378Z,6.43
2018-12-21T20:01:53.678Z,6.51
2018-12-21T20:04:56.956Z,6.54
2018-12-21T20:08:00.276Z,6.56
2018-12-21T20:11:03.671Z,6.58
2018-12-21T20:14:06.898Z,6.58
2018-12-21T20:17:10.172Z,6.57
2018-12-21T20:20:13.514Z,6.50
2018-12-21T20:23:16.780Z,6.54
2018-12-21T20:26:20.271Z,6.55
2018-12-21T20:29:23.556Z,6.59
2018-12-21T20:32:26.890Z,6.57
2018-12-21T20:35:30.178Z,6.57
2018-12-21T20:38:33.410Z,6.36
2018-12-21T20:41:37.351Z,6.46
2018-12-21T20:44:40.736Z,6.68
2018-12-21T20:47:44.335Z,6.60
2018-12-21T20:50:47.736Z,6.60
2018-12-21T20:53:52.127Z,6.56
2018-12-21T20:56:59.062Z,6.50
2018-12-21T21:00:02.794Z,6.56
2018-12-21T21:03:06.219Z,6.47
2018-12-21T21:06:09.739Z,6.35
2018-12-21T21:09:14.036Z,6.41
2018-12-21T21:12:17.468Z,6.34
2018-12-21T21:15:20.850Z,6.44
2018-12-21T21:18:24.257Z,6.24
2018-12-21T21:21:27.588Z,6.31
2018-12-21T21:24:30.988Z,6.24
2018-12-21T21:27:35.283Z,6.25
2018-12-21T21:30:39.750Z,6.21
2018-12-21T21:33:43.178Z,6.16
2018-12-21T21:36:46.782Z,6.28
2018-12-21T21:39:50.447Z,6.18
2018-12-21T21:42:57.686Z,6.26
2018-12-21T21:46:00.561Z,6.17
2018-12-21T21:49:04.057Z,6.14
2018-12-21T21:52:07.581Z,6.19
2018-12-21T21:55:11.028Z,6.18
2018-12-21T21:58:14.964Z,6.20
2018-12-21T22:01:18.374Z,6.22
2018-12-21T22:04:22.020Z,6.26
2018-12-21T22:07:25.974Z,6.30
2018-12-21T22:10:29.479Z,6.33
2018-12-21T22:13:32.785Z,6.22
2018-12-21T22:16:36.616Z,6.23
2018-12-21T22:19:40.100Z,6.24
2018-12-21T22:22:43.426Z,6.27
2018-12-21T22:25:53.249Z,6.17
2018-12-21T22:28:52.338Z,6.18
2018-12-21T22:31:55.654Z,6.17
2018-12-21T22:34:58.991Z,6.11
2018-12-21T22:38:02.283Z,6.27
2018-12-21T22:41:05.628Z,6.09
2018-12-21T22:44:08.976Z,6.16
2018-12-21T22:47:12.200Z,6.13
2018-12-21T22:50:15.520Z,6.03
2018-12-21T22:53:19.703Z,6.05
2018-12-21T22:56:22.933Z,5.99
2018-12-21T22:59:26.342Z,6.00
2018-12-21T23:02:30.315Z,6.03
2018-12-21T23:05:33.686Z,5.94
2018-12-21T23:08:37.168Z,6.01
2018-12-21T23:11:40.822Z,5.93
2018-12-21T23:14:44.162Z,5.85
2018-12-21T23:17:47.567Z,5.92
2018-12-21T23:20:50.887Z,5.82
2018-12-21T23:23:54.286Z,5.71
2018-12-21T23:26:57.738Z,5.90
2018-12-21T23:30:01.219Z,5.76
2018-12-21T23:33:06.006Z,5.84
2018-12-21T23:36:10.006Z,5.82
2018-12-21T23:39:13.324Z,5.90
2018-12-21T23:42:16.678Z,5.69
2018-12-21T23:45:20.005Z,5.62
2018-12-21T23:48:23.367Z,5.67
2018-12-21T23:51:26.792Z,5.66
2018-12-21T23:54:30.081Z,5.73
2018-12-21T23:57:33.275Z,5.68
